To NAV CANADA Home Page Login to a new session Search on AWWS site Disclaimer Vers la page française équivalente Tips FAQ What's new on the site To the Forecasts and Observations / NOTAM section To "File a Flight Plan" website Publications and other links Update of the User's profile FIC Telephone Numbers My Weather Data Folder Route Weather Data Regional Weather Data Local Weather Data To the Forecasts and Observations / NOTAM section
Request Generated 03/19/2019 at 23:44:21 UTC . Weather information available at that time is displayed.

METAR/TAF

NAUJAAT/NU    

LWIS CYUT 192300Z AUTO 31009G17KT M26/M30 A3003=
METAR CYUT 192200Z 33016G24KT 15SM DRSN SCT250 M26/M31 A3002 RMK CC4 S00 AFT 13UTC/1.0/SNW CVR/HARD PACK/LAST STFD OB/NXT 201200Z SL
P170=
METAR CYUT 192100Z 32018G26KT 15SM DRSN SKC M26/M31 A3001 RMK SLP169=

*** REMARK        : Forecast period has ended; this was the last TAF issued
*** REMARQUE : La période de prévision est échue; ceci était le dernier TAF qui a été émis
TAF CYUT 191838Z 1919/1922 34015G25KT P6SM SKC TEMPO 1919/1920 21/2SM
BLSN
RMK NXT FCST WILL BE ISSUED AT 201345Z=
Your time UTC time
Weather data provided by Environment Canada and NAV CANADA